sensor_id;sensor_type;location;lat;lon;timestamp;P1;durP1;ratioP1;P2;durP2;ratioP2
13927;SDS011;7036;50.834;4.718;2022-08-18T00:00:37;6.33;;;5.73;;
13927;SDS011;7036;50.834;4.718;2022-08-18T00:03:05;5.80;;;5.30;;
13927;SDS011;7036;50.834;4.718;2022-08-18T00:05:31;7.57;;;5.90;;
13927;SDS011;7036;50.834;4.718;2022-08-18T00:07:58;5.80;;;5.40;;
13927;SDS011;7036;50.834;4.718;2022-08-18T00:10:25;6.60;;;5.50;;
13927;SDS011;7036;50.834;4.718;2022-08-18T00:12:51;5.37;;;4.90;;
13927;SDS011;7036;50.834;4.718;2022-08-18T00:15:18;5.90;;;5.30;;
13927;SDS011;7036;50.834;4.718;2022-08-18T00:17:46;5.93;;;5.43;;
13927;SDS011;7036;50.834;4.718;2022-08-18T00:20:14;6.33;;;5.73;;
13927;SDS011;7036;50.834;4.718;2022-08-18T00:22:39;5.30;;;4.80;;
13927;SDS011;7036;50.834;4.718;2022-08-18T00:25:07;6.17;;;5.57;;
13927;SDS011;7036;50.834;4.718;2022-08-18T00:27:33;6.50;;;5.90;;
13927;SDS011;7036;50.834;4.718;2022-08-18T00:30:00;6.13;;;5.10;;
13927;SDS011;7036;50.834;4.718;2022-08-18T00:32:29;5.37;;;4.97;;
13927;SDS011;7036;50.834;4.718;2022-08-18T00:34:54;6.20;;;5.60;;
13927;SDS011;7036;50.834;4.718;2022-08-18T00:37:22;5.57;;;5.07;;
13927;SDS011;7036;50.834;4.718;2022-08-18T00:39:49;6.20;;;5.30;;
13927;SDS011;7036;50.834;4.718;2022-08-18T00:42:20;5.70;;;4.90;;
13927;SDS011;7036;50.834;4.718;2022-08-18T00:44:42;5.70;;;5.20;;
13927;SDS011;7036;50.834;4.718;2022-08-18T00:47:09;5.13;;;4.73;;
13927;SDS011;7036;50.834;4.718;2022-08-18T00:49:37;6.47;;;4.90;;
13927;SDS011;7036;50.834;4.718;2022-08-18T00:52:04;5.80;;;5.20;;
13927;SDS011;7036;50.834;4.718;2022-08-18T00:54:31;5.20;;;4.77;;
13927;SDS011;7036;50.834;4.718;2022-08-18T00:56:59;5.53;;;4.67;;
13927;SDS011;7036;50.834;4.718;2022-08-18T01:02:01;5.53;;;5.13;;
13927;SDS011;7036;50.834;4.718;2022-08-18T01:04:32;5.43;;;4.93;;
13927;SDS011;7036;50.834;4.718;2022-08-18T01:06:59;5.90;;;5.30;;
13927;SDS011;7036;50.834;4.718;2022-08-18T01:09:24;6.03;;;5.43;;
13927;SDS011;7036;50.834;4.718;2022-08-18T01:11:51;5.60;;;4.93;;
13927;SDS011;7036;50.834;4.718;2022-08-18T01:14:18;5.50;;;5.00;;
13927;SDS011;7036;50.834;4.718;2022-08-18T01:16:45;6.30;;;4.93;;
13927;SDS011;7036;50.834;4.718;2022-08-18T01:19:30;4.97;;;4.57;;
13927;SDS011;7036;50.834;4.718;2022-08-18T01:22:21;5.43;;;4.97;;
13927;SDS011;7036;50.834;4.718;2022-08-18T01:24:54;5.30;;;4.80;;
13927;SDS011;7036;50.834;4.718;2022-08-18T01:27:39;5.83;;;5.33;;
13927;SDS011;7036;50.834;4.718;2022-08-18T01:30:07;5.47;;;5.07;;
13927;SDS011;7036;50.834;4.718;2022-08-18T01:32:33;5.70;;;5.20;;
13927;SDS011;7036;50.834;4.718;2022-08-18T01:35:00;5.60;;;5.10;;
13927;SDS011;7036;50.834;4.718;2022-08-18T01:37:26;5.60;;;4.93;;
13927;SDS011;7036;50.834;4.718;2022-08-18T01:39:54;5.13;;;4.73;;
13927;SDS011;7036;50.834;4.718;2022-08-18T01:42:20;5.77;;;5.17;;
13927;SDS011;7036;50.834;4.718;2022-08-18T01:44:47;5.40;;;4.80;;
13927;SDS011;7036;50.834;4.718;2022-08-18T01:47:14;5.77;;;4.97;;
13927;SDS011;7036;50.834;4.718;2022-08-18T01:49:41;4.93;;;4.40;;
13927;SDS011;7036;50.834;4.718;2022-08-18T01:52:09;5.80;;;5.30;;
13927;SDS011;7036;50.834;4.718;2022-08-18T01:54:35;5.03;;;4.63;;
13927;SDS011;7036;50.834;4.718;2022-08-18T01:57:03;6.43;;;5.77;;
13927;SDS011;7036;50.834;4.718;2022-08-18T01:59:29;5.97;;;5.47;;
13927;SDS011;7036;50.834;4.718;2022-08-18T02:01:56;6.37;;;5.77;;
13927;SDS011;7036;50.834;4.718;2022-08-18T02:04:24;6.33;;;5.73;;
13927;SDS011;7036;50.834;4.718;2022-08-18T02:06:50;6.27;;;5.70;;
13927;SDS011;7036;50.834;4.718;2022-08-18T02:09:17;6.03;;;5.53;;
13927;SDS011;7036;50.834;4.718;2022-08-18T02:11:43;6.67;;;5.97;;
13927;SDS011;7036;50.834;4.718;2022-08-18T02:14:10;6.63;;;6.03;;
13927;SDS011;7036;50.834;4.718;2022-08-18T02:16:37;6.63;;;6.03;;
13927;SDS011;7036;50.834;4.718;2022-08-18T02:19:04;7.10;;;6.43;;
13927;SDS011;7036;50.834;4.718;2022-08-18T02:21:31;6.23;;;5.73;;
13927;SDS011;7036;50.834;4.718;2022-08-18T02:23:59;6.67;;;6.10;;
13927;SDS011;7036;50.834;4.718;2022-08-18T02:26:25;7.07;;;5.93;;
13927;SDS011;7036;50.834;4.718;2022-08-18T02:28:52;6.90;;;5.70;;
13927;SDS011;7036;50.834;4.718;2022-08-18T02:31:20;7.07;;;6.43;;
13927;SDS011;7036;50.834;4.718;2022-08-18T02:33:46;7.00;;;6.30;;
13927;SDS011;7036;50.834;4.718;2022-08-18T02:36:13;5.80;;;5.20;;
13927;SDS011;7036;50.834;4.718;2022-08-18T02:38:40;6.73;;;6.13;;
13927;SDS011;7036;50.834;4.718;2022-08-18T02:41:08;5.70;;;5.20;;
13927;SDS011;7036;50.834;4.718;2022-08-18T02:43:34;6.00;;;5.50;;
13927;SDS011;7036;50.834;4.718;2022-08-18T02:46:01;6.70;;;6.10;;
13927;SDS011;7036;50.834;4.718;2022-08-18T02:48:28;6.60;;;6.00;;
13927;SDS011;7036;50.834;4.718;2022-08-18T02:51:06;6.63;;;6.00;;
13927;SDS011;7036;50.834;4.718;2022-08-18T02:53:39;6.40;;;5.80;;
13927;SDS011;7036;50.834;4.718;2022-08-18T02:56:15;6.07;;;5.57;;
13927;SDS011;7036;50.834;4.718;2022-08-18T02:58:37;6.50;;;5.90;;
13927;SDS011;7036;50.834;4.718;2022-08-18T03:01:04;7.03;;;6.07;;
13927;SDS011;7036;50.834;4.718;2022-08-18T03:03:31;7.83;;;5.90;;
13927;SDS011;7036;50.834;4.718;2022-08-18T03:05:58;6.93;;;6.23;;
13927;SDS011;7036;50.834;4.718;2022-08-18T03:08:25;6.40;;;5.80;;
13927;SDS011;7036;50.834;4.718;2022-08-18T03:10:52;7.70;;;6.80;;
13927;SDS011;7036;50.834;4.718;2022-08-18T03:13:19;5.03;;;4.63;;
13927;SDS011;7036;50.834;4.718;2022-08-18T03:15:46;7.50;;;6.83;;
13927;SDS011;7036;50.834;4.718;2022-08-18T03:18:13;6.57;;;5.27;;
13927;SDS011;7036;50.834;4.718;2022-08-18T03:20:40;7.07;;;5.83;;
13927;SDS011;7036;50.834;4.718;2022-08-18T03:23:07;6.47;;;5.83;;
13927;SDS011;7036;50.834;4.718;2022-08-18T03:25:34;6.57;;;5.97;;
13927;SDS011;7036;50.834;4.718;2022-08-18T03:28:03;6.67;;;6.07;;
13927;SDS011;7036;50.834;4.718;2022-08-18T03:30:31;6.73;;;6.13;;
13927;SDS011;7036;50.834;4.718;2022-08-18T03:32:58;6.40;;;5.80;;
13927;SDS011;7036;50.834;4.718;2022-08-18T03:35:24;6.30;;;5.70;;
13927;SDS011;7036;50.834;4.718;2022-08-18T03:37:51;6.40;;;5.77;;
13927;SDS011;7036;50.834;4.718;2022-08-18T03:40:18;6.80;;;6.10;;
13927;SDS011;7036;50.834;4.718;2022-08-18T03:42:45;6.40;;;5.77;;
13927;SDS011;7036;50.834;4.718;2022-08-18T03:45:12;6.47;;;5.77;;
13927;SDS011;7036;50.834;4.718;2022-08-18T03:47:39;6.37;;;5.77;;
13927;SDS011;7036;50.834;4.718;2022-08-18T03:50:06;7.07;;;5.80;;
13927;SDS011;7036;50.834;4.718;2022-08-18T03:52:33;7.20;;;6.00;;
13927;SDS011;7036;50.834;4.718;2022-08-18T03:55:00;5.73;;;5.13;;
13927;SDS011;7036;50.834;4.718;2022-08-18T03:57:27;7.07;;;5.90;;
13927;SDS011;7036;50.834;4.718;2022-08-18T03:59:54;6.47;;;5.87;;
13927;SDS011;7036;50.834;4.718;2022-08-18T04:02:21;7.00;;;5.40;;
13927;SDS011;7036;50.834;4.718;2022-08-18T04:04:48;7.03;;;5.93;;
13927;SDS011;7036;50.834;4.718;2022-08-18T04:07:15;6.40;;;5.80;;
13927;SDS011;7036;50.834;4.718;2022-08-18T04:09:42;6.37;;;5.87;;
13927;SDS011;7036;50.834;4.718;2022-08-18T04:12:12;6.00;;;5.40;;
13927;SDS011;7036;50.834;4.718;2022-08-18T04:14:36;5.30;;;4.90;;
13927;SDS011;7036;50.834;4.718;2022-08-18T04:17:03;5.60;;;5.03;;
13927;SDS011;7036;50.834;4.718;2022-08-18T04:19:30;5.23;;;4.77;;
13927;SDS011;7036;50.834;4.718;2022-08-18T04:21:57;7.70;;;5.07;;
13927;SDS011;7036;50.834;4.718;2022-08-18T04:24:24;4.77;;;4.37;;
13927;SDS011;7036;50.834;4.718;2022-08-18T04:26:50;5.37;;;4.97;;
13927;SDS011;7036;50.834;4.718;2022-08-18T04:29:18;5.33;;;4.83;;
13927;SDS011;7036;50.834;4.718;2022-08-18T04:31:44;5.60;;;5.10;;
13927;SDS011;7036;50.834;4.718;2022-08-18T04:34:11;4.83;;;4.43;;
13927;SDS011;7036;50.834;4.718;2022-08-18T04:36:39;5.37;;;4.87;;
13927;SDS011;7036;50.834;4.718;2022-08-18T04:39:06;5.13;;;4.67;;
13927;SDS011;7036;50.834;4.718;2022-08-18T04:41:32;4.80;;;4.40;;
13927;SDS011;7036;50.834;4.718;2022-08-18T04:44:00;5.00;;;4.60;;
13927;SDS011;7036;50.834;4.718;2022-08-18T04:46:26;5.17;;;4.67;;
13927;SDS011;7036;50.834;4.718;2022-08-18T04:48:53;5.50;;;5.03;;
13927;SDS011;7036;50.834;4.718;2022-08-18T04:51:22;5.63;;;5.13;;
13927;SDS011;7036;50.834;4.718;2022-08-18T04:53:49;5.27;;;4.80;;
13927;SDS011;7036;50.834;4.718;2022-08-18T04:56:17;5.70;;;5.20;;
13927;SDS011;7036;50.834;4.718;2022-08-18T04:58:43;5.00;;;4.50;;
13927;SDS011;7036;50.834;4.718;2022-08-18T05:01:10;5.33;;;4.80;;
13927;SDS011;7036;50.834;4.718;2022-08-18T05:03:37;5.67;;;5.00;;
13927;SDS011;7036;50.834;4.718;2022-08-18T05:06:04;4.77;;;4.37;;
13927;SDS011;7036;50.834;4.718;2022-08-18T05:08:31;5.67;;;4.77;;
13927;SDS011;7036;50.834;4.718;2022-08-18T05:10:58;5.53;;;4.90;;
13927;SDS011;7036;50.834;4.718;2022-08-18T05:13:25;5.67;;;5.17;;
13927;SDS011;7036;50.834;4.718;2022-08-18T05:15:55;5.23;;;4.53;;
13927;SDS011;7036;50.834;4.718;2022-08-18T05:18:21;6.07;;;4.93;;
13927;SDS011;7036;50.834;4.718;2022-08-18T05:20:49;5.57;;;5.07;;
13927;SDS011;7036;50.834;4.718;2022-08-18T05:23:19;6.07;;;5.47;;
13927;SDS011;7036;50.834;4.718;2022-08-18T05:25:45;5.33;;;4.93;;
13927;SDS011;7036;50.834;4.718;2022-08-18T05:28:12;6.57;;;5.13;;
13927;SDS011;7036;50.834;4.718;2022-08-18T05:30:39;6.20;;;5.60;;
13927;SDS011;7036;50.834;4.718;2022-08-18T05:33:06;5.37;;;4.87;;
13927;SDS011;7036;50.834;4.718;2022-08-18T05:35:34;5.83;;;5.33;;
13927;SDS011;7036;50.834;4.718;2022-08-18T05:40:29;5.90;;;5.40;;
13927;SDS011;7036;50.834;4.718;2022-08-18T05:42:56;6.03;;;5.43;;
13927;SDS011;7036;50.834;4.718;2022-08-18T05:45:23;5.60;;;5.20;;
13927;SDS011;7036;50.834;4.718;2022-08-18T05:47:50;5.83;;;5.27;;
13927;SDS011;7036;50.834;4.718;2022-08-18T05:50:17;5.13;;;4.73;;
13927;SDS011;7036;50.834;4.718;2022-08-18T05:55:20;5.87;;;5.20;;
13927;SDS011;7036;50.834;4.718;2022-08-18T05:58:07;5.40;;;4.90;;
13927;SDS011;7036;50.834;4.718;2022-08-18T06:00:31;5.30;;;4.90;;
13927;SDS011;7036;50.834;4.718;2022-08-18T06:03:11;5.03;;;4.63;;
13927;SDS011;7036;50.834;4.718;2022-08-18T06:05:35;5.03;;;4.60;;
13927;SDS011;7036;50.834;4.718;2022-08-18T06:08:02;5.90;;;5.40;;
13927;SDS011;7036;50.834;4.718;2022-08-18T06:10:30;6.17;;;5.67;;
13927;SDS011;7036;50.834;4.718;2022-08-18T06:12:56;6.90;;;5.47;;
13927;SDS011;7036;50.834;4.718;2022-08-18T06:15:23;6.43;;;5.83;;
13927;SDS011;7036;50.834;4.718;2022-08-18T06:23:13;15.40;;;12.83;;
13927;SDS011;7036;50.834;4.718;2022-08-18T06:25:39;15.13;;;13.17;;
13927;SDS011;7036;50.834;4.718;2022-08-18T06:28:19;17.30;;;15.47;;
13927;SDS011;7036;50.834;4.718;2022-08-18T06:33:21;17.03;;;15.23;;
13927;SDS011;7036;50.834;4.718;2022-08-18T06:35:51;17.57;;;14.97;;
13927;SDS011;7036;50.834;4.718;2022-08-18T06:38:25;17.53;;;13.63;;
13927;SDS011;7036;50.834;4.718;2022-08-18T06:43:36;16.83;;;15.07;;
13927;SDS011;7036;50.834;4.718;2022-08-18T06:46:07;19.13;;;17.23;;
13927;SDS011;7036;50.834;4.718;2022-08-18T06:48:36;18.40;;;15.87;;
13927;SDS011;7036;50.834;4.718;2022-08-18T06:50:59;20.43;;;16.33;;
13927;SDS011;7036;50.834;4.718;2022-08-18T06:59:13;15.10;;;12.70;;
13927;SDS011;7036;50.834;4.718;2022-08-18T07:01:51;15.10;;;13.47;;
13927;SDS011;7036;50.834;4.718;2022-08-18T07:07:15;16.23;;;12.67;;
13927;SDS011;7036;50.834;4.718;2022-08-18T07:09:44;13.73;;;12.33;;
13927;SDS011;7036;50.834;4.718;2022-08-18T07:12:15;13.23;;;10.60;;
13927;SDS011;7036;50.834;4.718;2022-08-18T07:14:42;13.80;;;11.77;;
13927;SDS011;7036;50.834;4.718;2022-08-18T07:17:09;15.93;;;11.77;;
13927;SDS011;7036;50.834;4.718;2022-08-18T07:19:37;17.80;;;11.60;;
13927;SDS011;7036;50.834;4.718;2022-08-18T07:22:13;13.43;;;11.67;;
13927;SDS011;7036;50.834;4.718;2022-08-18T07:24:39;12.90;;;10.83;;
13927;SDS011;7036;50.834;4.718;2022-08-18T07:27:17;18.27;;;12.00;;
13927;SDS011;7036;50.834;4.718;2022-08-18T07:35:12;11.20;;;10.03;;
13927;SDS011;7036;50.834;4.718;2022-08-18T07:40:18;12.90;;;11.43;;
13927;SDS011;7036;50.834;4.718;2022-08-18T07:42:41;14.33;;;11.90;;
13927;SDS011;7036;50.834;4.718;2022-08-18T07:45:11;16.73;;;12.67;;
13927;SDS011;7036;50.834;4.718;2022-08-18T07:47:39;13.17;;;11.87;;
13927;SDS011;7036;50.834;4.718;2022-08-18T07:50:05;13.07;;;11.77;;
13927;SDS011;7036;50.834;4.718;2022-08-18T07:52:35;13.00;;;11.60;;
13927;SDS011;7036;50.834;4.718;2022-08-18T07:55:03;13.50;;;11.00;;
13927;SDS011;7036;50.834;4.718;2022-08-18T07:57:39;12.27;;;9.80;;
13927;SDS011;7036;50.834;4.718;2022-08-18T08:02:57;11.20;;;10.10;;
13927;SDS011;7036;50.834;4.718;2022-08-18T08:05:59;11.33;;;9.40;;
13927;SDS011;7036;50.834;4.718;2022-08-18T08:08:53;10.40;;;9.40;;
13927;SDS011;7036;50.834;4.718;2022-08-18T08:11:31;13.03;;;9.47;;
13927;SDS011;7036;50.834;4.718;2022-08-18T08:16:55;12.27;;;11.03;;
13927;SDS011;7036;50.834;4.718;2022-08-18T08:19:39;11.97;;;10.63;;
13927;SDS011;7036;50.834;4.718;2022-08-18T08:22:06;14.00;;;11.20;;
13927;SDS011;7036;50.834;4.718;2022-08-18T08:30:08;13.97;;;11.97;;
13927;SDS011;7036;50.834;4.718;2022-08-18T08:32:34;14.00;;;12.70;;
13927;SDS011;7036;50.834;4.718;2022-08-18T08:40:16;10.40;;;9.40;;
13927;SDS011;7036;50.834;4.718;2022-08-18T08:45:14;12.13;;;9.87;;
13927;SDS011;7036;50.834;4.718;2022-08-18T08:48:26;12.77;;;10.57;;
13927;SDS011;7036;50.834;4.718;2022-08-18T08:50:28;11.77;;;10.23;;
13927;SDS011;7036;50.834;4.718;2022-08-18T08:52:58;12.23;;;10.47;;
13927;SDS011;7036;50.834;4.718;2022-08-18T08:55:27;12.40;;;10.43;;
13927;SDS011;7036;50.834;4.718;2022-08-18T08:57:57;12.27;;;10.03;;
13927;SDS011;7036;50.834;4.718;2022-08-18T09:00:27;11.00;;;9.83;;
13927;SDS011;7036;50.834;4.718;2022-08-18T09:19:54;12.77;;;8.97;;
13927;SDS011;7036;50.834;4.718;2022-08-18T09:22:46;12.87;;;9.33;;
13927;SDS011;7036;50.834;4.718;2022-08-18T09:33:17;9.00;;;7.57;;
13927;SDS011;7036;50.834;4.718;2022-08-18T09:35:47;8.53;;;7.40;;
13927;SDS011;7036;50.834;4.718;2022-08-18T09:38:15;7.60;;;6.83;;
13927;SDS011;7036;50.834;4.718;2022-08-18T09:44:09;9.30;;;7.77;;
13927;SDS011;7036;50.834;4.718;2022-08-18T09:51:58;9.67;;;7.10;;
13927;SDS011;7036;50.834;4.718;2022-08-18T09:54:29;8.60;;;7.80;;
13927;SDS011;7036;50.834;4.718;2022-08-18T09:56:56;7.97;;;7.17;;
13927;SDS011;7036;50.834;4.718;2022-08-18T10:02:01;7.93;;;7.13;;
13927;SDS011;7036;50.834;4.718;2022-08-18T10:04:31;7.80;;;6.93;;
13927;SDS011;7036;50.834;4.718;2022-08-18T10:07:14;8.00;;;7.30;;
13927;SDS011;7036;50.834;4.718;2022-08-18T10:12:31;10.80;;;8.10;;
13927;SDS011;7036;50.834;4.718;2022-08-18T10:15:18;9.27;;;8.43;;
13927;SDS011;7036;50.834;4.718;2022-08-18T10:20:41;8.57;;;7.80;;
13927;SDS011;7036;50.834;4.718;2022-08-18T10:23:11;8.07;;;7.30;;
13927;SDS011;7036;50.834;4.718;2022-08-18T10:25:40;7.97;;;7.20;;
13927;SDS011;7036;50.834;4.718;2022-08-18T10:33:01;17.83;;;9.70;;
13927;SDS011;7036;50.834;4.718;2022-08-18T10:38:14;12.33;;;10.20;;
13927;SDS011;7036;50.834;4.718;2022-08-18T10:40:30;13.57;;;9.80;;
13927;SDS011;7036;50.834;4.718;2022-08-18T10:43:07;11.50;;;9.63;;
13927;SDS011;7036;50.834;4.718;2022-08-18T10:45:30;9.83;;;8.73;;
13927;SDS011;7036;50.834;4.718;2022-08-18T10:48:06;10.53;;;8.50;;
13927;SDS011;7036;50.834;4.718;2022-08-18T10:53:30;11.50;;;8.00;;
13927;SDS011;7036;50.834;4.718;2022-08-18T11:01:25;7.97;;;7.23;;
13927;SDS011;7036;50.834;4.718;2022-08-18T11:04:08;11.03;;;7.57;;
13927;SDS011;7036;50.834;4.718;2022-08-18T11:06:38;9.93;;;7.50;;
13927;SDS011;7036;50.834;4.718;2022-08-18T11:09:03;8.50;;;7.60;;
13927;SDS011;7036;50.834;4.718;2022-08-18T11:11:35;7.37;;;6.63;;
13927;SDS011;7036;50.834;4.718;2022-08-18T11:19:09;8.40;;;7.60;;
13927;SDS011;7036;50.834;4.718;2022-08-18T11:24:13;7.17;;;6.47;;
13927;SDS011;7036;50.834;4.718;2022-08-18T11:26:48;7.90;;;6.53;;
13927;SDS011;7036;50.834;4.718;2022-08-18T11:34:37;7.83;;;6.87;;
13927;SDS011;7036;50.834;4.718;2022-08-18T11:37:04;7.53;;;6.60;;
13927;SDS011;7036;50.834;4.718;2022-08-18T11:39:29;8.20;;;5.87;;
13927;SDS011;7036;50.834;4.718;2022-08-18T11:41:57;7.40;;;6.70;;
13927;SDS011;7036;50.834;4.718;2022-08-18T11:44:24;6.53;;;5.97;;
13927;SDS011;7036;50.834;4.718;2022-08-18T11:46:54;7.20;;;6.30;;
13927;SDS011;7036;50.834;4.718;2022-08-18T11:49:31;10.40;;;6.20;;
13927;SDS011;7036;50.834;4.718;2022-08-18T11:51:59;6.27;;;5.67;;
13927;SDS011;7036;50.834;4.718;2022-08-18T11:54:30;6.20;;;5.60;;
13927;SDS011;7036;50.834;4.718;2022-08-18T11:56:50;8.27;;;6.10;;
13927;SDS011;7036;50.834;4.718;2022-08-18T12:01:59;6.87;;;5.90;;
13927;SDS011;7036;50.834;4.718;2022-08-18T12:04:31;6.00;;;5.40;;
13927;SDS011;7036;50.834;4.718;2022-08-18T12:11:56;7.97;;;5.57;;
13927;SDS011;7036;50.834;4.718;2022-08-18T12:14:25;6.97;;;5.90;;
13927;SDS011;7036;50.834;4.718;2022-08-18T12:16:49;6.07;;;5.50;;
13927;SDS011;7036;50.834;4.718;2022-08-18T12:19:16;6.27;;;5.23;;
13927;SDS011;7036;50.834;4.718;2022-08-18T12:21:43;5.93;;;5.37;;
13927;SDS011;7036;50.834;4.718;2022-08-18T12:24:18;6.83;;;5.63;;
13927;SDS011;7036;50.834;4.718;2022-08-18T12:26:39;6.73;;;4.53;;
13927;SDS011;7036;50.834;4.718;2022-08-18T12:29:06;5.33;;;4.83;;
13927;SDS011;7036;50.834;4.718;2022-08-18T12:31:33;6.40;;;4.83;;
13927;SDS011;7036;50.834;4.718;2022-08-18T12:33:59;6.40;;;5.40;;
13927;SDS011;7036;50.834;4.718;2022-08-18T12:36:26;5.37;;;4.87;;
13927;SDS011;7036;50.834;4.718;2022-08-18T12:38:53;8.00;;;5.70;;
13927;SDS011;7036;50.834;4.718;2022-08-18T12:41:21;8.87;;;4.63;;
13927;SDS011;7036;50.834;4.718;2022-08-18T12:43:47;5.90;;;5.30;;
13927;SDS011;7036;50.834;4.718;2022-08-18T12:46:14;5.20;;;4.80;;
13927;SDS011;7036;50.834;4.718;2022-08-18T12:48:42;6.43;;;5.13;;
13927;SDS011;7036;50.834;4.718;2022-08-18T12:51:08;5.03;;;4.63;;
13927;SDS011;7036;50.834;4.718;2022-08-18T12:53:35;6.13;;;5.13;;
13927;SDS011;7036;50.834;4.718;2022-08-18T12:56:02;4.83;;;4.43;;
13927;SDS011;7036;50.834;4.718;2022-08-18T12:58:29;6.33;;;4.83;;
13927;SDS011;7036;50.834;4.718;2022-08-18T13:00:56;5.40;;;4.30;;
13927;SDS011;7036;50.834;4.718;2022-08-18T13:03:23;6.03;;;5.50;;
13927;SDS011;7036;50.834;4.718;2022-08-18T13:05:50;5.10;;;4.70;;
13927;SDS011;7036;50.834;4.718;2022-08-18T13:08:18;4.90;;;4.50;;
13927;SDS011;7036;50.834;4.718;2022-08-18T13:10:43;4.80;;;4.40;;
13927;SDS011;7036;50.834;4.718;2022-08-18T13:13:10;5.33;;;4.50;;
13927;SDS011;7036;50.834;4.718;2022-08-18T13:15:37;6.93;;;4.90;;
13927;SDS011;7036;50.834;4.718;2022-08-18T13:18:04;5.10;;;4.70;;
13927;SDS011;7036;50.834;4.718;2022-08-18T13:20:31;7.27;;;4.90;;
13927;SDS011;7036;50.834;4.718;2022-08-18T13:22:58;5.20;;;4.80;;
13927;SDS011;7036;50.834;4.718;2022-08-18T13:25:25;5.27;;;4.77;;
13927;SDS011;7036;50.834;4.718;2022-08-18T13:27:52;4.70;;;4.30;;
13927;SDS011;7036;50.834;4.718;2022-08-18T13:30:21;5.20;;;4.50;;
13927;SDS011;7036;50.834;4.718;2022-08-18T13:32:47;4.20;;;3.90;;
13927;SDS011;7036;50.834;4.718;2022-08-18T13:35:14;4.97;;;4.57;;
13927;SDS011;7036;50.834;4.718;2022-08-18T13:37:40;4.50;;;4.10;;
13927;SDS011;7036;50.834;4.718;2022-08-18T13:40:08;4.70;;;4.30;;
13927;SDS011;7036;50.834;4.718;2022-08-18T13:42:42;6.77;;;4.70;;
13927;SDS011;7036;50.834;4.718;2022-08-18T13:45:09;4.87;;;4.30;;
13927;SDS011;7036;50.834;4.718;2022-08-18T13:47:35;4.87;;;4.47;;
13927;SDS011;7036;50.834;4.718;2022-08-18T13:50:02;5.23;;;4.80;;
13927;SDS011;7036;50.834;4.718;2022-08-18T13:52:29;5.30;;;4.80;;
13927;SDS011;7036;50.834;4.718;2022-08-18T13:54:56;4.80;;;4.20;;
13927;SDS011;7036;50.834;4.718;2022-08-18T13:57:23;4.23;;;3.87;;
13927;SDS011;7036;50.834;4.718;2022-08-18T13:59:50;4.20;;;3.87;;
13927;SDS011;7036;50.834;4.718;2022-08-18T14:02:17;4.70;;;4.27;;
13927;SDS011;7036;50.834;4.718;2022-08-18T14:04:44;5.00;;;4.60;;
13927;SDS011;7036;50.834;4.718;2022-08-18T14:07:11;5.17;;;4.07;;
13927;SDS011;7036;50.834;4.718;2022-08-18T14:09:38;5.50;;;4.50;;
13927;SDS011;7036;50.834;4.718;2022-08-18T14:12:05;4.97;;;4.60;;
13927;SDS011;7036;50.834;4.718;2022-08-18T14:14:32;4.77;;;4.27;;
13927;SDS011;7036;50.834;4.718;2022-08-18T14:16:59;5.50;;;5.00;;
13927;SDS011;7036;50.834;4.718;2022-08-18T14:19:26;4.67;;;4.27;;
13927;SDS011;7036;50.834;4.718;2022-08-18T14:22:11;5.00;;;4.60;;
13927;SDS011;7036;50.834;4.718;2022-08-18T14:24:56;5.93;;;5.43;;
13927;SDS011;7036;50.834;4.718;2022-08-18T14:27:41;5.57;;;5.13;;
13927;SDS011;7036;50.834;4.718;2022-08-18T14:30:09;6.13;;;5.47;;
13927;SDS011;7036;50.834;4.718;2022-08-18T14:32:35;6.13;;;5.63;;
13927;SDS011;7036;50.834;4.718;2022-08-18T14:35:03;5.97;;;5.47;;
13927;SDS011;7036;50.834;4.718;2022-08-18T14:37:30;6.57;;;5.93;;
13927;SDS011;7036;50.834;4.718;2022-08-18T14:39:56;7.03;;;6.43;;
13927;SDS011;7036;50.834;4.718;2022-08-18T14:42:24;7.03;;;5.43;;
13927;SDS011;7036;50.834;4.718;2022-08-18T14:44:50;8.70;;;7.93;;
13927;SDS011;7036;50.834;4.718;2022-08-18T14:47:17;8.97;;;8.17;;
13927;SDS011;7036;50.834;4.718;2022-08-18T14:49:45;11.33;;;10.23;;
13927;SDS011;7036;50.834;4.718;2022-08-18T14:52:12;9.10;;;8.30;;
13927;SDS011;7036;50.834;4.718;2022-08-18T14:54:39;10.67;;;9.60;;
13927;SDS011;7036;50.834;4.718;2022-08-18T14:57:06;11.93;;;10.93;;
13927;SDS011;7036;50.834;4.718;2022-08-18T14:59:32;12.07;;;10.87;;
13927;SDS011;7036;50.834;4.718;2022-08-18T15:01:59;11.93;;;10.83;;
13927;SDS011;7036;50.834;4.718;2022-08-18T15:04:26;14.50;;;12.97;;
13927;SDS011;7036;50.834;4.718;2022-08-18T15:06:54;14.47;;;13.13;;
13927;SDS011;7036;50.834;4.718;2022-08-18T15:09:20;15.30;;;13.80;;
13927;SDS011;7036;50.834;4.718;2022-08-18T15:11:47;15.17;;;13.80;;
13927;SDS011;7036;50.834;4.718;2022-08-18T15:14:14;12.63;;;11.43;;
13927;SDS011;7036;50.834;4.718;2022-08-18T15:16:41;13.93;;;12.83;;
13927;SDS011;7036;50.834;4.718;2022-08-18T15:19:08;13.97;;;12.57;;
13927;SDS011;7036;50.834;4.718;2022-08-18T15:21:35;13.00;;;11.83;;
13927;SDS011;7036;50.834;4.718;2022-08-18T15:24:21;13.27;;;12.07;;
13927;SDS011;7036;50.834;4.718;2022-08-18T15:26:54;12.33;;;11.13;;
13927;SDS011;7036;50.834;4.718;2022-08-18T15:29:21;14.83;;;12.10;;
13927;SDS011;7036;50.834;4.718;2022-08-18T15:31:48;12.33;;;11.10;;
13927;SDS011;7036;50.834;4.718;2022-08-18T15:34:15;11.37;;;10.20;;
13927;SDS011;7036;50.834;4.718;2022-08-18T15:36:42;12.77;;;11.47;;
13927;SDS011;7036;50.834;4.718;2022-08-18T15:39:09;13.50;;;12.17;;
13927;SDS011;7036;50.834;4.718;2022-08-18T15:41:37;13.17;;;12.07;;
13927;SDS011;7036;50.834;4.718;2022-08-18T15:44:04;12.63;;;11.43;;
13927;SDS011;7036;50.834;4.718;2022-08-18T15:46:30;13.10;;;11.80;;
13927;SDS011;7036;50.834;4.718;2022-08-18T15:48:57;12.87;;;11.73;;
13927;SDS011;7036;50.834;4.718;2022-08-18T15:51:25;13.40;;;12.10;;
13927;SDS011;7036;50.834;4.718;2022-08-18T15:53:52;13.40;;;12.10;;
13927;SDS011;7036;50.834;4.718;2022-08-18T15:56:21;12.90;;;11.70;;
13927;SDS011;7036;50.834;4.718;2022-08-18T15:58:46;12.17;;;10.90;;
13927;SDS011;7036;50.834;4.718;2022-08-18T16:01:13;12.60;;;11.27;;
13927;SDS011;7036;50.834;4.718;2022-08-18T16:03:39;12.23;;;11.17;;
13927;SDS011;7036;50.834;4.718;2022-08-18T16:06:11;14.70;;;11.97;;
13927;SDS011;7036;50.834;4.718;2022-08-18T16:08:34;13.03;;;11.63;;
13927;SDS011;7036;50.834;4.718;2022-08-18T16:11:05;14.53;;;12.20;;
13927;SDS011;7036;50.834;4.718;2022-08-18T16:13:29;12.47;;;11.33;;
13927;SDS011;7036;50.834;4.718;2022-08-18T16:15:55;13.17;;;11.87;;
13927;SDS011;7036;50.834;4.718;2022-08-18T16:18:22;13.33;;;12.03;;
13927;SDS011;7036;50.834;4.718;2022-08-18T16:20:51;13.47;;;12.33;;
13927;SDS011;7036;50.834;4.718;2022-08-18T16:23:19;15.63;;;11.80;;
13927;SDS011;7036;50.834;4.718;2022-08-18T16:25:45;13.47;;;12.17;;
13927;SDS011;7036;50.834;4.718;2022-08-18T16:28:12;13.50;;;12.30;;
13927;SDS011;7036;50.834;4.718;2022-08-18T16:30:40;13.00;;;11.70;;
13927;SDS011;7036;50.834;4.718;2022-08-18T16:33:08;13.07;;;11.83;;
13927;SDS011;7036;50.834;4.718;2022-08-18T16:35:35;12.63;;;11.43;;
13927;SDS011;7036;50.834;4.718;2022-08-18T16:38:06;13.17;;;12.03;;
13927;SDS011;7036;50.834;4.718;2022-08-18T16:40:31;13.37;;;12.17;;
13927;SDS011;7036;50.834;4.718;2022-08-18T16:42:58;12.70;;;11.50;;
13927;SDS011;7036;50.834;4.718;2022-08-18T16:45:26;11.70;;;10.70;;
13927;SDS011;7036;50.834;4.718;2022-08-18T16:47:53;13.50;;;12.10;;
13927;SDS011;7036;50.834;4.718;2022-08-18T16:50:20;12.37;;;11.27;;
13927;SDS011;7036;50.834;4.718;2022-08-18T16:52:47;12.80;;;11.70;;
13927;SDS011;7036;50.834;4.718;2022-08-18T16:55:14;12.20;;;11.13;;
13927;SDS011;7036;50.834;4.718;2022-08-18T16:57:41;13.43;;;12.27;;
13927;SDS011;7036;50.834;4.718;2022-08-18T17:00:26;12.47;;;11.23;;
13927;SDS011;7036;50.834;4.718;2022-08-18T17:03:12;13.07;;;11.93;;
13927;SDS011;7036;50.834;4.718;2022-08-18T17:05:58;12.10;;;11.00;;
13927;SDS011;7036;50.834;4.718;2022-08-18T17:08:30;12.67;;;11.57;;
13927;SDS011;7036;50.834;4.718;2022-08-18T17:10:57;12.60;;;11.50;;
13927;SDS011;7036;50.834;4.718;2022-08-18T17:13:24;13.20;;;12.00;;